Terminal Aerodrome Forecast
Issued by NWS Topeka, KS

Home | Current Version | Previous Version | Text Only | Print | Product List | Glossary On
Versions: 1 2 3 4 5 6 7 8 9 10 11 12 13 14 15 16 17 18 19 20 21 22 23 24 25 26
000
FTUS43 KTOP 252300
TAFTOP
TAF
KTOP 252325Z 2600/2624 08005KT P6SM SKC
     FM260700 11005KT 4SM BR SCT008
     FM260900 13007KT 1SM BR BKN006
     FM261500 17015G24KT P6SM FEW015=

USA.gov is the U.S. government's official web portal to all federal, state and local government web resources and services.